Terminal Aerodrome Forecast
Issued by NWS Wilmington, OH

Current Version | Previous Version | Graphics & Text | Print | Product List | Glossary On
Versions: 1 2 3 4 5 6 7 8 9 10 11 12 13 14 15 16 17 18 19 20 21
000
FTUS41 KILN 231720
TAFCVG
TAF
KCVG 231720Z 2318/2424 03006KT P6SM FEW035 SCT250
     FM232200 04005KT P6SM SCT250
     FM241500 08006KT P6SM FEW250=

USA.gov is the U.S. government's official web portal to all federal, state and local government web resources and services.